sensor_id;sensor_type;location;lat;lon;timestamp;pressure;altitude;pressure_sealevel;temperature;humidity
31585;BME280;18191;51.288;12.390;2023-03-20T00:05:18;49014.81;;;-144.47;83.01
31585;BME280;18191;51.288;12.390;2023-03-20T00:10:10;49032.72;;;-144.47;82.32
31585;BME280;18191;51.288;12.390;2023-03-20T00:15:01;49038.69;;;-144.47;82.18
31585;BME280;18191;51.288;12.390;2023-03-20T00:19:53;49036.69;;;-144.47;82.13
31585;BME280;18191;51.288;12.390;2023-03-20T00:24:43;48988.94;;;-144.47;82.39
31585;BME280;18191;51.288;12.390;2023-03-20T00:29:33;49048.63;;;-144.47;82.18
31585;BME280;18191;51.288;12.390;2023-03-20T00:34:25;49020.78;;;-144.47;82.87
31585;BME280;18191;51.288;12.390;2023-03-20T00:39:16;49044.66;;;-144.47;82.21
31585;BME280;18191;51.288;12.390;2023-03-20T00:44:17;49056.59;;;-144.47;81.78
31585;BME280;18191;51.288;12.390;2023-03-20T00:49:09;49068.50;;;-144.47;82.52
31585;BME280;18191;51.288;12.390;2023-03-20T00:53:59;49068.50;;;-144.47;82.82
31585;BME280;18191;51.288;12.390;2023-03-20T00:58:50;49016.78;;;-144.47;83.25
31585;BME280;18191;51.288;12.390;2023-03-20T01:03:40;49014.81;;;-144.47;83.09
31585;BME280;18191;51.288;12.390;2023-03-20T01:08:30;49016.78;;;-144.47;82.82
31585;BME280;18191;51.288;12.390;2023-03-20T01:13:24;49024.75;;;-144.47;83.13
31585;BME280;18191;51.288;12.390;2023-03-20T01:18:15;49016.78;;;-144.47;83.31
31585;BME280;18191;51.288;12.390;2023-03-20T01:23:05;49024.75;;;-144.47;82.74
31585;BME280;18191;51.288;12.390;2023-03-20T01:27:55;48996.91;;;-144.47;83.47
31585;BME280;18191;51.288;12.390;2023-03-20T01:32:47;48986.97;;;-144.47;83.27
31585;BME280;18191;51.288;12.390;2023-03-20T01:37:37;49006.84;;;-144.47;82.96
31585;BME280;18191;51.288;12.390;2023-03-20T01:42:27;49022.75;;;-144.47;83.42
31585;BME280;18191;51.288;12.390;2023-03-20T01:47:19;48988.94;;;-144.47;83.87
31585;BME280;18191;51.288;12.390;2023-03-20T01:52:10;49056.59;;;-144.47;85.43
31585;BME280;18191;51.288;12.390;2023-03-20T01:57:04;48996.91;;;-144.47;85.23
31585;BME280;18191;51.288;12.390;2023-03-20T02:01:56;49032.72;;;-144.47;84.63
31585;BME280;18191;51.288;12.390;2023-03-20T02:06:47;49022.75;;;-144.47;84.56
31585;BME280;18191;51.288;12.390;2023-03-20T02:11:38;49002.88;;;-144.47;85.02
31585;BME280;18191;51.288;12.390;2023-03-20T02:16:29;49032.72;;;-144.47;85.20
31585;BME280;18191;51.288;12.390;2023-03-20T02:21:44;49038.69;;;-144.47;85.23
31585;BME280;18191;51.288;12.390;2023-03-20T02:37:13;49062.56;;;-144.47;86.53
31585;BME280;18191;51.288;12.390;2023-03-20T02:42:11;49056.59;;;-144.47;86.30
31585;BME280;18191;51.288;12.390;2023-03-20T02:47:07;49032.72;;;-144.47;86.32
31585;BME280;18191;51.288;12.390;2023-03-20T02:52:14;49036.69;;;-144.47;86.20
31585;BME280;18191;51.288;12.390;2023-03-20T03:03:00;49024.75;;;-144.47;86.41
31585;BME280;18191;51.288;12.390;2023-03-20T03:07:42;49024.75;;;-144.47;86.12
31585;BME280;18191;51.288;12.390;2023-03-20T03:12:37;49086.41;;;-144.47;86.03
31585;BME280;18191;51.288;12.390;2023-03-20T03:17:31;49032.72;;;-144.47;86.51
31585;BME280;18191;51.288;12.390;2023-03-20T03:22:23;49036.69;;;-144.47;86.97
31585;BME280;18191;51.288;12.390;2023-03-20T03:32:04;49048.63;;;-144.47;87.82
31585;BME280;18191;51.288;12.390;2023-03-20T03:37:01;49052.59;;;-144.47;88.20
31585;BME280;18191;51.288;12.390;2023-03-20T03:41:58;49056.59;;;-144.47;88.83
31585;BME280;18191;51.288;12.390;2023-03-20T03:47:03;49048.63;;;-144.47;88.53
31585;BME280;18191;51.288;12.390;2023-03-20T03:51:57;49050.63;;;-144.47;88.29
31585;BME280;18191;51.288;12.390;2023-03-20T03:56:49;49044.66;;;-144.47;88.75
31585;BME280;18191;51.288;12.390;2023-03-20T04:01:40;49056.59;;;-144.47;88.85
31585;BME280;18191;51.288;12.390;2023-03-20T04:06:33;49056.59;;;-144.47;88.69
31585;BME280;18191;51.288;12.390;2023-03-20T04:11:23;49032.72;;;-144.47;88.08
31585;BME280;18191;51.288;12.390;2023-03-20T04:16:14;49074.47;;;-144.47;88.01
31585;BME280;18191;51.288;12.390;2023-03-20T04:21:05;49032.72;;;-144.47;88.26
31585;BME280;18191;51.288;12.390;2023-03-20T04:25:56;49022.75;;;-144.47;88.18
31585;BME280;18191;51.288;12.390;2023-03-20T04:30:51;49012.81;;;-144.47;88.03
31585;BME280;18191;51.288;12.390;2023-03-20T04:35:41;49082.44;;;-144.47;87.94
31585;BME280;18191;51.288;12.390;2023-03-20T04:40:31;49052.59;;;-144.47;88.43
31585;BME280;18191;51.288;12.390;2023-03-20T04:45:21;49052.59;;;-144.47;88.51
31585;BME280;18191;51.288;12.390;2023-03-20T04:50:11;49032.72;;;-144.47;88.17
31585;BME280;18191;51.288;12.390;2023-03-20T04:55:03;49028.72;;;-144.47;88.65
31585;BME280;18191;51.288;12.390;2023-03-20T04:59:53;49074.47;;;-144.47;89.88
31585;BME280;18191;51.288;12.390;2023-03-20T05:04:43;49060.56;;;-144.47;90.26
31585;BME280;18191;51.288;12.390;2023-03-20T05:09:33;49038.69;;;-144.47;90.85
31585;BME280;18191;51.288;12.390;2023-03-20T05:14:23;49028.72;;;-144.47;91.06
31585;BME280;18191;51.288;12.390;2023-03-20T05:19:14;49076.47;;;-144.47;90.87
31585;BME280;18191;51.288;12.390;2023-03-20T05:24:04;49066.53;;;-144.47;89.78
31585;BME280;18191;51.288;12.390;2023-03-20T05:28:55;49044.66;;;-144.47;89.79
31585;BME280;18191;51.288;12.390;2023-03-20T05:33:45;49084.44;;;-144.47;89.60
31585;BME280;18191;51.288;12.390;2023-03-20T05:38:35;49032.72;;;-144.47;89.72
31585;BME280;18191;51.288;12.390;2023-03-20T05:43:25;49062.56;;;-144.47;89.11
31585;BME280;18191;51.288;12.390;2023-03-20T05:48:17;49046.63;;;-144.47;88.81
31585;BME280;18191;51.288;12.390;2023-03-20T05:53:07;49084.44;;;-144.47;89.28
31585;BME280;18191;51.288;12.390;2023-03-20T05:57:58;49044.66;;;-144.47;88.60
31585;BME280;18191;51.288;12.390;2023-03-20T06:02:48;49044.66;;;-144.47;88.08
31585;BME280;18191;51.288;12.390;2023-03-20T06:07:38;49028.72;;;-144.47;88.19
31585;BME280;18191;51.288;12.390;2023-03-20T06:12:28;49028.72;;;-144.47;87.66
31585;BME280;18191;51.288;12.390;2023-03-20T06:17:18;49034.69;;;-144.47;87.70
31585;BME280;18191;51.288;12.390;2023-03-20T06:22:09;49048.63;;;-144.47;87.63
31585;BME280;18191;51.288;12.390;2023-03-20T06:26:59;49064.53;;;-144.47;87.51
31585;BME280;18191;51.288;12.390;2023-03-20T06:31:49;49052.59;;;-144.47;87.01
31585;BME280;18191;51.288;12.390;2023-03-20T06:36:39;49072.50;;;-144.47;87.06
31585;BME280;18191;51.288;12.390;2023-03-20T06:41:30;49020.78;;;-144.47;86.56
31585;BME280;18191;51.288;12.390;2023-03-20T06:46:20;49032.72;;;-144.47;86.38
31585;BME280;18191;51.288;12.390;2023-03-20T06:51:10;49010.81;;;-144.47;86.71
31585;BME280;18191;51.288;12.390;2023-03-20T06:56:01;49022.75;;;-144.47;86.73
31585;BME280;18191;51.288;12.390;2023-03-20T07:00:51;49076.47;;;-144.47;87.00
31585;BME280;18191;51.288;12.390;2023-03-20T07:05:42;49044.66;;;-144.47;86.90
31585;BME280;18191;51.288;12.390;2023-03-20T07:10:34;49064.53;;;-144.47;86.16
31585;BME280;18191;51.288;12.390;2023-03-20T07:15:24;49080.44;;;-144.47;86.03
31585;BME280;18191;51.288;12.390;2023-03-20T07:20:15;49080.44;;;-144.47;84.54
31585;BME280;18191;51.288;12.390;2023-03-20T07:25:06;49010.81;;;-144.47;83.41
31585;BME280;18191;51.288;12.390;2023-03-20T07:29:57;49028.72;;;-144.47;83.32
31585;BME280;18191;51.288;12.390;2023-03-20T07:34:47;49008.84;;;-144.47;83.47
31585;BME280;18191;51.288;12.390;2023-03-20T07:39:39;49048.63;;;-144.47;82.01
31585;BME280;18191;51.288;12.390;2023-03-20T07:44:29;49036.69;;;-144.47;83.04
31585;BME280;18191;51.288;12.390;2023-03-20T07:49:19;49018.78;;;-144.47;86.00
31585;BME280;18191;51.288;12.390;2023-03-20T07:54:09;49044.66;;;-144.47;88.03
31585;BME280;18191;51.288;12.390;2023-03-20T07:59:00;49064.53;;;-144.47;86.56
31585;BME280;18191;51.288;12.390;2023-03-20T08:03:50;49012.81;;;-144.47;85.84
31585;BME280;18191;51.288;12.390;2023-03-20T08:08:41;49052.59;;;-144.47;85.60
31585;BME280;18191;51.288;12.390;2023-03-20T08:13:31;49048.63;;;-144.47;84.77
31585;BME280;18191;51.288;12.390;2023-03-20T08:18:21;49052.59;;;-144.47;85.66
31585;BME280;18191;51.288;12.390;2023-03-20T08:23:11;49020.78;;;-144.47;81.95
31585;BME280;18191;51.288;12.390;2023-03-20T08:28:01;49096.38;;;-144.47;83.56
31585;BME280;18191;51.288;12.390;2023-03-20T08:32:51;49008.84;;;-144.47;82.20
31585;BME280;18191;51.288;12.390;2023-03-20T08:37:42;49076.47;;;-144.47;84.37
31585;BME280;18191;51.288;12.390;2023-03-20T08:42:32;49010.81;;;-144.47;83.21
31585;BME280;18191;51.288;12.390;2023-03-20T08:47:22;49024.75;;;-144.47;81.40
31585;BME280;18191;51.288;12.390;2023-03-20T08:52:12;49054.59;;;-144.47;82.66
31585;BME280;18191;51.288;12.390;2023-03-20T08:57:02;49034.69;;;-144.47;78.14
31585;BME280;18191;51.288;12.390;2023-03-20T09:01:53;49024.75;;;-144.47;74.29
31585;BME280;18191;51.288;12.390;2023-03-20T09:06:43;49016.78;;;-144.47;76.73
31585;BME280;18191;51.288;12.390;2023-03-20T09:11:33;49040.66;;;-144.47;76.70
31585;BME280;18191;51.288;12.390;2023-03-20T09:16:24;49068.50;;;-144.47;77.23
31585;BME280;18191;51.288;12.390;2023-03-20T09:21:14;49052.59;;;-144.47;78.63
31585;BME280;18191;51.288;12.390;2023-03-20T09:26:04;49052.59;;;-144.47;80.08
31585;BME280;18191;51.288;12.390;2023-03-20T09:30:55;49008.84;;;-144.47;81.33
31585;BME280;18191;51.288;12.390;2023-03-20T09:35:46;49088.41;;;-144.47;79.67
31585;BME280;18191;51.288;12.390;2023-03-20T09:40:39;49032.72;;;-144.47;81.06
31585;BME280;18191;51.288;12.390;2023-03-20T09:45:44;49066.53;;;-144.47;81.01
31585;BME280;18191;51.288;12.390;2023-03-20T09:50:38;49022.75;;;-144.47;82.32
31585;BME280;18191;51.288;12.390;2023-03-20T09:55:35;49022.75;;;-144.47;81.98
31585;BME280;18191;51.288;12.390;2023-03-20T10:00:27;49020.78;;;-144.47;80.94
31585;BME280;18191;51.288;12.390;2023-03-20T10:05:19;49052.59;;;-144.47;81.91
31585;BME280;18191;51.288;12.390;2023-03-20T10:10:14;49036.69;;;-144.47;82.54
31585;BME280;18191;51.288;12.390;2023-03-20T10:15:09;49076.47;;;-144.47;82.93
31585;BME280;18191;51.288;12.390;2023-03-20T10:20:09;49032.72;;;-144.47;83.36
31585;BME280;18191;51.288;12.390;2023-03-20T10:30:21;49032.72;;;-144.47;81.91
31585;BME280;18191;51.288;12.390;2023-03-20T10:35:22;49044.66;;;-144.47;79.93
31585;BME280;18191;51.288;12.390;2023-03-20T10:40:29;49036.69;;;-144.47;79.14
31585;BME280;18191;51.288;12.390;2023-03-20T10:45:28;49032.72;;;-144.47;76.56
31585;BME280;18191;51.288;12.390;2023-03-20T10:50:22;49048.63;;;-144.47;78.31
31585;BME280;18191;51.288;12.390;2023-03-20T10:55:19;49044.66;;;-144.47;79.91
31585;BME280;18191;51.288;12.390;2023-03-20T11:00:17;49058.56;;;-144.47;77.46
31585;BME280;18191;51.288;12.390;2023-03-20T11:05:20;49068.50;;;-144.47;77.65
31585;BME280;18191;51.288;12.390;2023-03-20T11:10:12;49036.69;;;-144.47;78.21
31585;BME280;18191;51.288;12.390;2023-03-20T11:15:11;49008.84;;;-144.47;79.59
31585;BME280;18191;51.288;12.390;2023-03-20T11:20:03;49036.69;;;-144.47;79.62
31585;BME280;18191;51.288;12.390;2023-03-20T11:24:54;49040.66;;;-144.47;79.59
31585;BME280;18191;51.288;12.390;2023-03-20T11:29:45;49028.72;;;-144.47;79.96
31585;BME280;18191;51.288;12.390;2023-03-20T11:34:38;49034.69;;;-144.47;77.37
31585;BME280;18191;51.288;12.390;2023-03-20T11:39:30;49052.59;;;-144.47;77.46
31585;BME280;18191;51.288;12.390;2023-03-20T11:44:28;49060.56;;;-144.47;77.95
31585;BME280;18191;51.288;12.390;2023-03-20T11:49:19;49072.50;;;-144.47;78.11
31585;BME280;18191;51.288;12.390;2023-03-20T11:54:18;49020.78;;;-144.47;76.43
31585;BME280;18191;51.288;12.390;2023-03-20T12:04:04;49000.88;;;-144.47;76.02
31585;BME280;18191;51.288;12.390;2023-03-20T12:08:57;49036.69;;;-144.47;74.83
31585;BME280;18191;51.288;12.390;2023-03-20T12:13:49;49024.75;;;-144.47;77.48
31585;BME280;18191;51.288;12.390;2023-03-20T12:18:49;49094.38;;;-144.47;77.94
31585;BME280;18191;51.288;12.390;2023-03-20T12:23:44;49042.66;;;-144.47;78.88
31585;BME280;18191;51.288;12.390;2023-03-20T12:33:40;49012.81;;;-144.47;75.38
31585;BME280;18191;51.288;12.390;2023-03-20T12:38:32;49016.78;;;-144.47;76.76
31585;BME280;18191;51.288;12.390;2023-03-20T12:43:24;49066.53;;;-144.47;74.85
31585;BME280;18191;51.288;12.390;2023-03-20T12:48:36;49024.75;;;-144.47;73.92
31585;BME280;18191;51.288;12.390;2023-03-20T12:53:45;49068.50;;;-144.47;75.64
31585;BME280;18191;51.288;12.390;2023-03-20T12:58:43;49040.66;;;-144.47;78.29
31585;BME280;18191;51.288;12.390;2023-03-20T13:03:51;49072.50;;;-144.47;77.83
31585;BME280;18191;51.288;12.390;2023-03-20T13:14:00;49056.59;;;-144.47;76.26
31585;BME280;18191;51.288;12.390;2023-03-20T13:19:01;49038.69;;;-144.47;74.89
31585;BME280;18191;51.288;12.390;2023-03-20T13:28:48;49044.66;;;-144.47;69.73
31585;BME280;18191;51.288;12.390;2023-03-20T13:34:29;49076.47;;;-144.47;69.22
31585;BME280;18191;51.288;12.390;2023-03-20T13:39:03;49032.72;;;-144.47;70.18
31585;BME280;18191;51.288;12.390;2023-03-20T13:43:57;49076.47;;;-144.47;67.15
31585;BME280;18191;51.288;12.390;2023-03-20T13:48:50;49046.63;;;-144.47;64.15
31585;BME280;18191;51.288;12.390;2023-03-20T13:58:38;49036.69;;;-144.47;65.79
31585;BME280;18191;51.288;12.390;2023-03-20T14:03:34;49064.53;;;-144.47;66.20
31585;BME280;18191;51.288;12.390;2023-03-20T14:08:29;49000.88;;;-144.47;65.91
31585;BME280;18191;51.288;12.390;2023-03-20T14:13:21;49052.59;;;-144.47;67.27
31585;BME280;18191;51.288;12.390;2023-03-20T14:18:13;49030.72;;;-144.47;67.68
31585;BME280;18191;51.288;12.390;2023-03-20T14:23:04;49028.72;;;-144.47;66.67
31585;BME280;18191;51.288;12.390;2023-03-20T14:32:57;49052.59;;;-144.47;65.81
31585;BME280;18191;51.288;12.390;2023-03-20T14:42:52;49066.53;;;-144.47;64.90
31585;BME280;18191;51.288;12.390;2023-03-20T14:48:03;49078.47;;;-144.47;65.77
31585;BME280;18191;51.288;12.390;2023-03-20T14:53:12;49028.72;;;-144.47;66.09
31585;BME280;18191;51.288;12.390;2023-03-20T14:58:04;49036.69;;;-144.47;65.62
31585;BME280;18191;51.288;12.390;2023-03-20T15:03:14;49076.47;;;-144.47;66.27
31585;BME280;18191;51.288;12.390;2023-03-20T15:08:51;49038.69;;;-144.47;66.20
31585;BME280;18191;51.288;12.390;2023-03-20T15:13:15;49052.59;;;-144.47;66.66
31585;BME280;18191;51.288;12.390;2023-03-20T15:18:10;49012.81;;;-144.47;67.69
31585;BME280;18191;51.288;12.390;2023-03-20T15:23:01;49040.66;;;-144.47;70.19
31585;BME280;18191;51.288;12.390;2023-03-20T15:27:52;49052.59;;;-144.47;69.62
31585;BME280;18191;51.288;12.390;2023-03-20T15:32:42;49054.59;;;-144.47;70.44
31585;BME280;18191;51.288;12.390;2023-03-20T15:37:33;49064.53;;;-144.47;71.16
31585;BME280;18191;51.288;12.390;2023-03-20T15:42:23;49096.38;;;-144.47;74.53
31585;BME280;18191;51.288;12.390;2023-03-20T15:47:14;49064.53;;;-144.47;77.93
31585;BME280;18191;51.288;12.390;2023-03-20T15:57:19;49062.56;;;-144.47;79.25
31585;BME280;18191;51.288;12.390;2023-03-20T16:02:10;49052.59;;;-144.47;78.97
31585;BME280;18191;51.288;12.390;2023-03-20T16:07:01;49072.50;;;-144.47;80.11
31585;BME280;18191;51.288;12.390;2023-03-20T16:11:58;49048.63;;;-144.47;80.38
31585;BME280;18191;51.288;12.390;2023-03-20T16:16:49;49086.41;;;-144.47;81.58
31585;BME280;18191;51.288;12.390;2023-03-20T16:21:42;49034.69;;;-144.47;80.57
31585;BME280;18191;51.288;12.390;2023-03-20T16:26:35;49076.47;;;-144.47;81.86
31585;BME280;18191;51.288;12.390;2023-03-20T16:31:27;49064.53;;;-144.47;82.40
31585;BME280;18191;51.288;12.390;2023-03-20T16:36:20;49102.34;;;-144.47;82.96
31585;BME280;18191;51.288;12.390;2023-03-20T16:41:16;49064.53;;;-144.47;82.93
31585;BME280;18191;51.288;12.390;2023-03-20T16:46:15;49080.44;;;-144.47;82.44
31585;BME280;18191;51.288;12.390;2023-03-20T16:55:59;49068.50;;;-144.47;83.75
31585;BME280;18191;51.288;12.390;2023-03-20T17:00:52;49096.38;;;-144.47;85.11
31585;BME280;18191;51.288;12.390;2023-03-20T17:05:51;49052.59;;;-144.47;85.58
31585;BME280;18191;51.288;12.390;2023-03-20T17:10:43;49076.47;;;-144.47;85.45
31585;BME280;18191;51.288;12.390;2023-03-20T17:15:35;49076.47;;;-144.47;86.21
31585;BME280;18191;51.288;12.390;2023-03-20T17:20:26;49088.41;;;-144.47;86.90
31585;BME280;18191;51.288;12.390;2023-03-20T17:25:17;49088.41;;;-144.47;87.29
31585;BME280;18191;51.288;12.390;2023-03-20T17:30:17;49080.44;;;-144.47;87.57
31585;BME280;18191;51.288;12.390;2023-03-20T17:35:07;49080.44;;;-144.47;87.55
31585;BME280;18191;51.288;12.390;2023-03-20T17:39:57;49088.41;;;-144.47;87.81
31585;BME280;18191;51.288;12.390;2023-03-20T17:44:49;49108.31;;;-144.47;88.51
31585;BME280;18191;51.288;12.390;2023-03-20T17:49:39;49064.53;;;-144.47;88.38
31585;BME280;18191;51.288;12.390;2023-03-20T17:54:29;49064.53;;;-144.47;89.04
31585;BME280;18191;51.288;12.390;2023-03-20T17:59:20;49120.25;;;-144.47;89.21
31585;BME280;18191;51.288;12.390;2023-03-20T18:04:10;49090.41;;;-144.47;89.50
31585;BME280;18191;51.288;12.390;2023-03-20T18:09:00;49136.16;;;-144.47;90.02
31585;BME280;18191;51.288;12.390;2023-03-20T18:13:51;49100.34;;;-144.47;89.85
31585;BME280;18191;51.288;12.390;2023-03-20T18:18:41;49112.28;;;-144.47;89.53
31585;BME280;18191;51.288;12.390;2023-03-20T18:23:32;49096.38;;;-144.47;89.80
31585;BME280;18191;51.288;12.390;2023-03-20T18:28:22;49104.31;;;-144.47;89.59
31585;BME280;18191;51.288;12.390;2023-03-20T18:33:13;49120.25;;;-144.47;90.41
31585;BME280;18191;51.288;12.390;2023-03-20T18:38:03;49076.47;;;-144.47;90.75
31585;BME280;18191;51.288;12.390;2023-03-20T18:42:55;49088.41;;;-144.47;89.66
31585;BME280;18191;51.288;12.390;2023-03-20T18:47:46;49096.38;;;-144.47;91.05
31585;BME280;18191;51.288;12.390;2023-03-20T18:52:36;49120.25;;;-144.47;91.34
31585;BME280;18191;51.288;12.390;2023-03-20T18:57:26;49116.25;;;-144.47;91.75
31585;BME280;18191;51.288;12.390;2023-03-20T19:02:17;49062.56;;;-144.47;92.12
31585;BME280;18191;51.288;12.390;2023-03-20T19:07:10;49082.44;;;-144.47;91.67
31585;BME280;18191;51.288;12.390;2023-03-20T19:12:01;49088.41;;;-144.47;91.57
31585;BME280;18191;51.288;12.390;2023-03-20T19:16:51;49094.38;;;-144.47;92.16
31585;BME280;18191;51.288;12.390;2023-03-20T19:21:41;49080.44;;;-144.47;92.28
31585;BME280;18191;51.288;12.390;2023-03-20T19:26:32;49100.34;;;-144.47;93.52
31585;BME280;18191;51.288;12.390;2023-03-20T19:31:23;49138.16;;;-144.47;95.01
31585;BME280;18191;51.288;12.390;2023-03-20T19:36:19;49116.25;;;-144.47;94.84
31585;BME280;18191;51.288;12.390;2023-03-20T19:41:10;49100.34;;;-144.47;94.13
31585;BME280;18191;51.288;12.390;2023-03-20T19:46:00;49164.00;;;-144.47;94.09
31585;BME280;18191;51.288;12.390;2023-03-20T19:50:51;49100.34;;;-144.47;94.16
31585;BME280;18191;51.288;12.390;2023-03-20T19:55:41;49084.44;;;-144.47;94.15
31585;BME280;18191;51.288;12.390;2023-03-20T20:00:32;49116.25;;;-144.47;94.02
31585;BME280;18191;51.288;12.390;2023-03-20T20:05:24;49092.38;;;-144.47;94.02
31585;BME280;18191;51.288;12.390;2023-03-20T20:10:15;49116.25;;;-144.47;93.85
31585;BME280;18191;51.288;12.390;2023-03-20T20:15:09;49134.16;;;-144.47;94.21
31585;BME280;18191;51.288;12.390;2023-03-20T20:19:59;49092.38;;;-144.47;94.07
31585;BME280;18191;51.288;12.390;2023-03-20T20:24:50;49102.34;;;-144.47;93.80
31585;BME280;18191;51.288;12.390;2023-03-20T20:29:40;49120.25;;;-144.47;93.56
31585;BME280;18191;51.288;12.390;2023-03-20T20:34:30;49100.34;;;-144.47;93.32
31585;BME280;18191;51.288;12.390;2023-03-20T20:39:21;49058.56;;;-144.47;93.46
31585;BME280;18191;51.288;12.390;2023-03-20T20:44:11;49080.44;;;-144.47;93.81
31585;BME280;18191;51.288;12.390;2023-03-20T20:49:01;49102.34;;;-144.47;94.14
31585;BME280;18191;51.288;12.390;2023-03-20T20:53:51;49096.38;;;-144.47;94.15
31585;BME280;18191;51.288;12.390;2023-03-20T20:58:41;49128.19;;;-144.47;94.82
31585;BME280;18191;51.288;12.390;2023-03-20T21:03:31;49100.34;;;-144.47;94.92
31585;BME280;18191;51.288;12.390;2023-03-20T21:08:22;49096.38;;;-144.47;95.27
31585;BME280;18191;51.288;12.390;2023-03-20T21:13:12;49104.31;;;-144.47;96.47
31585;BME280;18191;51.288;12.390;2023-03-20T21:18:02;49102.34;;;-144.47;96.10
31585;BME280;18191;51.288;12.390;2023-03-20T21:22:53;49090.41;;;-144.47;96.12
31585;BME280;18191;51.288;12.390;2023-03-20T21:27:43;49112.28;;;-144.47;96.43
31585;BME280;18191;51.288;12.390;2023-03-20T21:32:33;49084.44;;;-144.47;95.83
31585;BME280;18191;51.288;12.390;2023-03-20T21:37:25;49124.22;;;-144.47;94.90
31585;BME280;18191;51.288;12.390;2023-03-20T21:42:16;49080.44;;;-144.47;94.84
31585;BME280;18191;51.288;12.390;2023-03-20T21:47:06;49148.09;;;-144.47;94.96
31585;BME280;18191;51.288;12.390;2023-03-20T21:51:56;49076.47;;;-144.47;94.87
31585;BME280;18191;51.288;12.390;2023-03-20T21:56:46;49120.25;;;-144.47;94.98
31585;BME280;18191;51.288;12.390;2023-03-20T22:01:37;49136.16;;;-144.47;94.49
31585;BME280;18191;51.288;12.390;2023-03-20T22:06:27;49114.28;;;-144.47;94.43
31585;BME280;18191;51.288;12.390;2023-03-20T22:11:18;49124.22;;;-144.47;94.41
31585;BME280;18191;51.288;12.390;2023-03-20T22:16:08;49096.38;;;-144.47;94.49
31585;BME280;18191;51.288;12.390;2023-03-20T22:21:00;49128.19;;;-144.47;94.58
31585;BME280;18191;51.288;12.390;2023-03-20T22:25:59;49076.47;;;-144.47;94.76
31585;BME280;18191;51.288;12.390;2023-03-20T22:30:49;49100.34;;;-144.47;94.82
31585;BME280;18191;51.288;12.390;2023-03-20T22:35:40;49112.28;;;-144.47;95.20
31585;BME280;18191;51.288;12.390;2023-03-20T22:40:30;49072.50;;;-144.47;95.00
31585;BME280;18191;51.288;12.390;2023-03-20T22:45:20;49120.25;;;-144.47;95.31
31585;BME280;18191;51.288;12.390;2023-03-20T22:50:10;49104.31;;;-144.47;95.00
31585;BME280;18191;51.288;12.390;2023-03-20T22:55:01;49084.44;;;-144.47;94.29
31585;BME280;18191;51.288;12.390;2023-03-20T22:59:51;49140.13;;;-144.47;93.42
31585;BME280;18191;51.288;12.390;2023-03-20T23:04:41;49112.28;;;-144.47;93.80
31585;BME280;18191;51.288;12.390;2023-03-20T23:09:31;49116.25;;;-144.47;93.44
31585;BME280;18191;51.288;12.390;2023-03-20T23:14:21;49076.47;;;-144.47;94.06
31585;BME280;18191;51.288;12.390;2023-03-20T23:19:12;49092.38;;;-144.47;93.79
31585;BME280;18191;51.288;12.390;2023-03-20T23:24:02;49082.44;;;-144.47;93.62
31585;BME280;18191;51.288;12.390;2023-03-20T23:28:52;49074.47;;;-144.47;93.22
31585;BME280;18191;51.288;12.390;2023-03-20T23:33:46;49120.25;;;-144.47;92.42
31585;BME280;18191;51.288;12.390;2023-03-20T23:38:37;49100.34;;;-144.47;92.60
31585;BME280;18191;51.288;12.390;2023-03-20T23:43:27;49124.22;;;-144.47;92.32
31585;BME280;18191;51.288;12.390;2023-03-20T23:48:18;49112.28;;;-144.47;91.65
31585;BME280;18191;51.288;12.390;2023-03-20T23:53:08;49080.44;;;-144.47;91.38
31585;BME280;18191;51.288;12.390;2023-03-20T23:57:58;49108.31;;;-144.47;90.29
